sensor_id;sensor_type;location;lat;lon;timestamp;temperature;humidity
64718;DHT22;62506;46.070;14.492;2022-08-19T00:02:02;25.70;60.80
64718;DHT22;62506;46.070;14.492;2022-08-19T00:04:30;25.70;60.80
64718;DHT22;62506;46.070;14.492;2022-08-19T00:06:56;25.70;60.80
64718;DHT22;62506;46.070;14.492;2022-08-19T00:09:22;25.70;60.80
64718;DHT22;62506;46.070;14.492;2022-08-19T00:11:48;25.70;60.80
64718;DHT22;62506;46.070;14.492;2022-08-19T00:14:15;25.70;60.70
64718;DHT22;62506;46.070;14.492;2022-08-19T00:16:41;25.70;60.80
64718;DHT22;62506;46.070;14.492;2022-08-19T00:19:06;25.70;60.60
64718;DHT22;62506;46.070;14.492;2022-08-19T00:21:32;25.70;60.60
64718;DHT22;62506;46.070;14.492;2022-08-19T00:23:58;25.70;60.60
64718;DHT22;62506;46.070;14.492;2022-08-19T00:26:24;25.70;60.70
64718;DHT22;62506;46.070;14.492;2022-08-19T00:28:50;25.70;60.60
64718;DHT22;62506;46.070;14.492;2022-08-19T00:31:15;25.70;60.60
64718;DHT22;62506;46.070;14.492;2022-08-19T00:33:41;25.70;60.60
64718;DHT22;62506;46.070;14.492;2022-08-19T00:36:07;25.70;60.60
64718;DHT22;62506;46.070;14.492;2022-08-19T00:38:33;25.70;60.60
64718;DHT22;62506;46.070;14.492;2022-08-19T00:40:59;25.70;60.60
64718;DHT22;62506;46.070;14.492;2022-08-19T00:43:25;25.70;60.70
64718;DHT22;62506;46.070;14.492;2022-08-19T00:45:51;25.70;60.70
64718;DHT22;62506;46.070;14.492;2022-08-19T00:48:17;25.70;60.60
64718;DHT22;62506;46.070;14.492;2022-08-19T00:50:43;25.70;60.60
64718;DHT22;62506;46.070;14.492;2022-08-19T00:53:12;25.70;60.60
64718;DHT22;62506;46.070;14.492;2022-08-19T00:55:40;25.70;60.60
64718;DHT22;62506;46.070;14.492;2022-08-19T00:58:08;25.70;60.60
64718;DHT22;62506;46.070;14.492;2022-08-19T01:00:35;25.70;60.70
64718;DHT22;62506;46.070;14.492;2022-08-19T01:03:03;25.70;60.70
64718;DHT22;62506;46.070;14.492;2022-08-19T01:05:29;25.70;60.60
64718;DHT22;62506;46.070;14.492;2022-08-19T01:07:56;25.70;60.60
64718;DHT22;62506;46.070;14.492;2022-08-19T01:10:24;25.70;60.60
64718;DHT22;62506;46.070;14.492;2022-08-19T01:12:51;25.60;60.60
64718;DHT22;62506;46.070;14.492;2022-08-19T01:15:18;25.60;60.60
64718;DHT22;62506;46.070;14.492;2022-08-19T01:17:45;25.60;60.60
64718;DHT22;62506;46.070;14.492;2022-08-19T01:20:12;25.60;60.70
64718;DHT22;62506;46.070;14.492;2022-08-19T01:22:41;25.70;60.80
64718;DHT22;62506;46.070;14.492;2022-08-19T01:25:08;25.70;60.80
64718;DHT22;62506;46.070;14.492;2022-08-19T01:27:37;25.60;60.80
64718;DHT22;62506;46.070;14.492;2022-08-19T01:30:03;25.60;60.80
64718;DHT22;62506;46.070;14.492;2022-08-19T01:32:29;25.60;60.80
64718;DHT22;62506;46.070;14.492;2022-08-19T01:34:55;25.60;60.70
64718;DHT22;62506;46.070;14.492;2022-08-19T01:37:21;25.60;61.10
64718;DHT22;62506;46.070;14.492;2022-08-19T01:39:46;25.60;61.10
64718;DHT22;62506;46.070;14.492;2022-08-19T01:42:12;25.60;61.10
64718;DHT22;62506;46.070;14.492;2022-08-19T01:44:40;25.60;61.20
64718;DHT22;62506;46.070;14.492;2022-08-19T01:47:06;25.60;61.10
64718;DHT22;62506;46.070;14.492;2022-08-19T01:49:33;25.60;61.10
64718;DHT22;62506;46.070;14.492;2022-08-19T01:51:59;25.60;61.10
64718;DHT22;62506;46.070;14.492;2022-08-19T01:54:25;25.60;61.10
64718;DHT22;62506;46.070;14.492;2022-08-19T01:56:51;25.60;61.10
64718;DHT22;62506;46.070;14.492;2022-08-19T01:59:19;25.60;61.10
64718;DHT22;62506;46.070;14.492;2022-08-19T02:01:45;25.60;61.10
64718;DHT22;62506;46.070;14.492;2022-08-19T02:04:11;25.60;61.10
64718;DHT22;62506;46.070;14.492;2022-08-19T02:06:36;25.60;61.10
64718;DHT22;62506;46.070;14.492;2022-08-19T02:09:03;25.60;61.10
64718;DHT22;62506;46.070;14.492;2022-08-19T02:11:31;25.60;61.20
64718;DHT22;62506;46.070;14.492;2022-08-19T02:13:57;25.60;61.30
64718;DHT22;62506;46.070;14.492;2022-08-19T02:16:23;25.60;61.50
64718;DHT22;62506;46.070;14.492;2022-08-19T02:18:48;25.60;61.80
64718;DHT22;62506;46.070;14.492;2022-08-19T02:21:18;25.60;61.80
64718;DHT22;62506;46.070;14.492;2022-08-19T02:23:43;25.60;61.70
64718;DHT22;62506;46.070;14.492;2022-08-19T02:26:09;25.60;61.30
64718;DHT22;62506;46.070;14.492;2022-08-19T02:28:35;25.60;61.10
64718;DHT22;62506;46.070;14.492;2022-08-19T02:31:02;25.60;61.10
64718;DHT22;62506;46.070;14.492;2022-08-19T02:33:27;25.60;61.30
64718;DHT22;62506;46.070;14.492;2022-08-19T02:35:53;25.60;61.10
64718;DHT22;62506;46.070;14.492;2022-08-19T02:38:19;25.60;61.10
64718;DHT22;62506;46.070;14.492;2022-08-19T02:40:51;25.60;61.50
64718;DHT22;62506;46.070;14.492;2022-08-19T02:43:17;25.60;60.90
64718;DHT22;62506;46.070;14.492;2022-08-19T02:45:45;25.60;61.00
64718;DHT22;62506;46.070;14.492;2022-08-19T02:48:11;25.60;60.80
64718;DHT22;62506;46.070;14.492;2022-08-19T02:50:37;25.60;60.80
64718;DHT22;62506;46.070;14.492;2022-08-19T02:53:03;25.60;60.70
64718;DHT22;62506;46.070;14.492;2022-08-19T02:55:28;25.60;60.70
64718;DHT22;62506;46.070;14.492;2022-08-19T02:57:54;25.60;60.70
64718;DHT22;62506;46.070;14.492;2022-08-19T03:00:19;25.60;60.60
64718;DHT22;62506;46.070;14.492;2022-08-19T03:02:45;25.60;60.60
64718;DHT22;62506;46.070;14.492;2022-08-19T03:05:12;25.60;60.60
64718;DHT22;62506;46.070;14.492;2022-08-19T03:07:38;25.60;60.60
64718;DHT22;62506;46.070;14.492;2022-08-19T03:10:04;25.60;60.60
64718;DHT22;62506;46.070;14.492;2022-08-19T03:12:29;25.60;60.60
64718;DHT22;62506;46.070;14.492;2022-08-19T03:14:55;25.60;60.60
64718;DHT22;62506;46.070;14.492;2022-08-19T03:17:21;25.60;60.60
64718;DHT22;62506;46.070;14.492;2022-08-19T03:19:46;25.60;61.00
64718;DHT22;62506;46.070;14.492;2022-08-19T03:22:11;25.60;60.80
64718;DHT22;62506;46.070;14.492;2022-08-19T03:24:37;25.60;60.70
64718;DHT22;62506;46.070;14.492;2022-08-19T03:27:03;25.60;60.60
64718;DHT22;62506;46.070;14.492;2022-08-19T03:29:30;25.60;60.60
64718;DHT22;62506;46.070;14.492;2022-08-19T03:31:59;25.60;60.60
64718;DHT22;62506;46.070;14.492;2022-08-19T03:34:27;25.60;60.80
64718;DHT22;62506;46.070;14.492;2022-08-19T03:36:54;25.60;60.60
64718;DHT22;62506;46.070;14.492;2022-08-19T03:39:20;25.60;60.60
64718;DHT22;62506;46.070;14.492;2022-08-19T03:41:46;25.60;60.50
64718;DHT22;62506;46.070;14.492;2022-08-19T03:44:16;25.60;60.50
64718;DHT22;62506;46.070;14.492;2022-08-19T03:46:43;25.60;60.50
64718;DHT22;62506;46.070;14.492;2022-08-19T03:49:08;25.60;60.60
64718;DHT22;62506;46.070;14.492;2022-08-19T03:51:35;25.60;60.60
64718;DHT22;62506;46.070;14.492;2022-08-19T03:54:01;25.60;60.50
64718;DHT22;62506;46.070;14.492;2022-08-19T03:56:28;25.60;60.50
64718;DHT22;62506;46.070;14.492;2022-08-19T03:58:54;25.60;60.60
64718;DHT22;62506;46.070;14.492;2022-08-19T04:01:21;25.60;60.60
64718;DHT22;62506;46.070;14.492;2022-08-19T04:03:47;25.60;60.50
64718;DHT22;62506;46.070;14.492;2022-08-19T04:06:17;25.60;60.60
64718;DHT22;62506;46.070;14.492;2022-08-19T04:08:43;25.60;60.50
64718;DHT22;62506;46.070;14.492;2022-08-19T04:11:10;25.60;61.40
64718;DHT22;62506;46.070;14.492;2022-08-19T04:13:35;25.60;60.70
64718;DHT22;62506;46.070;14.492;2022-08-19T04:16:01;25.60;60.70
64718;DHT22;62506;46.070;14.492;2022-08-19T04:18:27;25.60;60.60
64718;DHT22;62506;46.070;14.492;2022-08-19T04:20:55;25.60;60.60
64718;DHT22;62506;46.070;14.492;2022-08-19T04:23:20;25.60;59.40
64718;DHT22;62506;46.070;14.492;2022-08-19T04:25:46;25.60;60.20
64718;DHT22;62506;46.070;14.492;2022-08-19T04:28:12;25.70;60.20
64718;DHT22;62506;46.070;14.492;2022-08-19T04:30:41;25.70;60.30
64718;DHT22;62506;46.070;14.492;2022-08-19T04:33:07;25.70;60.10
64718;DHT22;62506;46.070;14.492;2022-08-19T04:35:40;25.80;60.20
64718;DHT22;62506;46.070;14.492;2022-08-19T04:38:06;25.80;59.90
64718;DHT22;62506;46.070;14.492;2022-08-19T04:40:31;25.70;59.90
64718;DHT22;62506;46.070;14.492;2022-08-19T04:43:16;25.70;59.90
64718;DHT22;62506;46.070;14.492;2022-08-19T04:45:46;25.80;60.00
64718;DHT22;62506;46.070;14.492;2022-08-19T04:48:12;25.80;59.90
64718;DHT22;62506;46.070;14.492;2022-08-19T04:50:41;25.80;59.80
64718;DHT22;62506;46.070;14.492;2022-08-19T04:53:07;25.80;59.80
64718;DHT22;62506;46.070;14.492;2022-08-19T04:55:33;25.80;59.70
64718;DHT22;62506;46.070;14.492;2022-08-19T04:58:00;25.80;59.80
64718;DHT22;62506;46.070;14.492;2022-08-19T05:00:27;25.80;59.80
64718;DHT22;62506;46.070;14.492;2022-08-19T05:02:53;25.80;59.70
64718;DHT22;62506;46.070;14.492;2022-08-19T05:05:18;25.80;59.70
64718;DHT22;62506;46.070;14.492;2022-08-19T05:07:45;25.80;59.80
64718;DHT22;62506;46.070;14.492;2022-08-19T05:10:10;25.80;59.60
64718;DHT22;62506;46.070;14.492;2022-08-19T05:12:36;25.80;59.60
64718;DHT22;62506;46.070;14.492;2022-08-19T05:15:04;25.80;59.70
64718;DHT22;62506;46.070;14.492;2022-08-19T05:17:31;25.70;59.60
64718;DHT22;62506;46.070;14.492;2022-08-19T05:19:56;25.70;59.80
64718;DHT22;62506;46.070;14.492;2022-08-19T05:22:41;25.80;60.00
64718;DHT22;62506;46.070;14.492;2022-08-19T05:25:08;25.70;60.00
64718;DHT22;62506;46.070;14.492;2022-08-19T05:27:34;25.70;60.20
64718;DHT22;62506;46.070;14.492;2022-08-19T05:30:00;25.70;60.10
64718;DHT22;62506;46.070;14.492;2022-08-19T05:32:27;25.70;60.40
64718;DHT22;62506;46.070;14.492;2022-08-19T05:34:53;25.70;60.50
64718;DHT22;62506;46.070;14.492;2022-08-19T05:37:18;25.70;60.50
64718;DHT22;62506;46.070;14.492;2022-08-19T05:39:44;25.60;60.30
64718;DHT22;62506;46.070;14.492;2022-08-19T05:42:10;25.70;60.40
64718;DHT22;62506;46.070;14.492;2022-08-19T05:44:37;25.70;60.30
64718;DHT22;62506;46.070;14.492;2022-08-19T05:47:05;25.60;60.30
64718;DHT22;62506;46.070;14.492;2022-08-19T05:49:31;25.70;60.40
64718;DHT22;62506;46.070;14.492;2022-08-19T05:51:57;25.60;60.40
64718;DHT22;62506;46.070;14.492;2022-08-19T05:54:24;25.70;60.50
64718;DHT22;62506;46.070;14.492;2022-08-19T05:56:50;25.70;60.60
64718;DHT22;62506;46.070;14.492;2022-08-19T05:59:17;25.60;60.60
64718;DHT22;62506;46.070;14.492;2022-08-19T06:01:44;25.60;59.60
64718;DHT22;62506;46.070;14.492;2022-08-19T06:04:11;25.60;60.80
64718;DHT22;62506;46.070;14.492;2022-08-19T06:06:38;25.60;61.40
64718;DHT22;62506;46.070;14.492;2022-08-19T06:09:04;25.60;61.30
64718;DHT22;62506;46.070;14.492;2022-08-19T06:11:32;25.70;61.20
64718;DHT22;62506;46.070;14.492;2022-08-19T06:14:00;25.60;61.30
64718;DHT22;62506;46.070;14.492;2022-08-19T06:16:27;25.70;61.60
64718;DHT22;62506;46.070;14.492;2022-08-19T06:18:53;25.70;61.10
64718;DHT22;62506;46.070;14.492;2022-08-19T06:21:22;25.70;61.00
64718;DHT22;62506;46.070;14.492;2022-08-19T06:23:49;25.70;60.80
64718;DHT22;62506;46.070;14.492;2022-08-19T06:26:17;25.80;60.40
64718;DHT22;62506;46.070;14.492;2022-08-19T06:28:43;25.80;60.20
64718;DHT22;62506;46.070;14.492;2022-08-19T06:31:17;25.80;60.60
64718;DHT22;62506;46.070;14.492;2022-08-19T06:33:44;25.80;61.00
64718;DHT22;62506;46.070;14.492;2022-08-19T06:39:07;25.80;60.60
64718;DHT22;62506;46.070;14.492;2022-08-19T06:41:37;25.60;60.30
64718;DHT22;62506;46.070;14.492;2022-08-19T06:44:03;25.60;60.90
64718;DHT22;62506;46.070;14.492;2022-08-19T06:46:29;25.60;60.80
64718;DHT22;62506;46.070;14.492;2022-08-19T06:48:56;25.60;60.80
64718;DHT22;62506;46.070;14.492;2022-08-19T06:51:21;25.60;61.30
64718;DHT22;62506;46.070;14.492;2022-08-19T06:53:48;25.60;61.00
64718;DHT22;62506;46.070;14.492;2022-08-19T06:56:17;25.60;61.10
64718;DHT22;62506;46.070;14.492;2022-08-19T06:58:43;25.60;60.50
64718;DHT22;62506;46.070;14.492;2022-08-19T07:01:09;25.60;60.90
64718;DHT22;62506;46.070;14.492;2022-08-19T07:03:35;25.60;61.10
64718;DHT22;62506;46.070;14.492;2022-08-19T07:06:08;25.60;61.10
64718;DHT22;62506;46.070;14.492;2022-08-19T07:08:35;25.60;61.10
64718;DHT22;62506;46.070;14.492;2022-08-19T07:11:02;25.60;61.10
64718;DHT22;62506;46.070;14.492;2022-08-19T07:13:28;25.60;61.10
64718;DHT22;62506;46.070;14.492;2022-08-19T07:15:53;25.60;61.10
64718;DHT22;62506;46.070;14.492;2022-08-19T07:18:19;25.60;61.10
64718;DHT22;62506;46.070;14.492;2022-08-19T07:20:45;25.60;61.10
64718;DHT22;62506;46.070;14.492;2022-08-19T07:23:11;25.60;61.10
64718;DHT22;62506;46.070;14.492;2022-08-19T07:25:37;25.60;61.10
64718;DHT22;62506;46.070;14.492;2022-08-19T07:28:03;25.60;61.20
64718;DHT22;62506;46.070;14.492;2022-08-19T07:30:29;25.60;61.10
64718;DHT22;62506;46.070;14.492;2022-08-19T07:32:54;25.60;61.10
64718;DHT22;62506;46.070;14.492;2022-08-19T07:35:21;25.60;60.90
64718;DHT22;62506;46.070;14.492;2022-08-19T07:37:47;25.60;61.00
64718;DHT22;62506;46.070;14.492;2022-08-19T07:40:12;25.60;61.10
64718;DHT22;62506;46.070;14.492;2022-08-19T07:42:38;25.60;61.10
64718;DHT22;62506;46.070;14.492;2022-08-19T07:45:04;25.60;61.00
64718;DHT22;62506;46.070;14.492;2022-08-19T07:47:30;25.60;60.90
64718;DHT22;62506;46.070;14.492;2022-08-19T07:49:56;25.60;61.10
64718;DHT22;62506;46.070;14.492;2022-08-19T07:52:21;25.60;60.90
64718;DHT22;62506;46.070;14.492;2022-08-19T07:54:47;25.60;61.10
64718;DHT22;62506;46.070;14.492;2022-08-19T07:57:14;25.60;61.10
64718;DHT22;62506;46.070;14.492;2022-08-19T07:59:40;25.60;61.10
64718;DHT22;62506;46.070;14.492;2022-08-19T08:02:06;25.60;61.10
64718;DHT22;62506;46.070;14.492;2022-08-19T08:04:31;25.60;61.30
64718;DHT22;62506;46.070;14.492;2022-08-19T08:07:16;25.60;61.10
64718;DHT22;62506;46.070;14.492;2022-08-19T08:10:00;25.60;60.80
64718;DHT22;62506;46.070;14.492;2022-08-19T08:12:37;25.60;60.80
64718;DHT22;62506;46.070;14.492;2022-08-19T08:15:08;25.70;60.80
64718;DHT22;62506;46.070;14.492;2022-08-19T08:17:34;25.70;60.60
64718;DHT22;62506;46.070;14.492;2022-08-19T08:20:00;25.70;60.70
64718;DHT22;62506;46.070;14.492;2022-08-19T08:22:26;25.70;60.90
64718;DHT22;62506;46.070;14.492;2022-08-19T08:25:12;25.60;60.80
64718;DHT22;62506;46.070;14.492;2022-08-19T08:27:38;25.60;60.80
64718;DHT22;62506;46.070;14.492;2022-08-19T08:30:07;25.70;60.80
64718;DHT22;62506;46.070;14.492;2022-08-19T08:32:34;25.60;60.60
64718;DHT22;62506;46.070;14.492;2022-08-19T08:35:01;25.70;60.70
64718;DHT22;62506;46.070;14.492;2022-08-19T08:37:26;25.60;60.60
64718;DHT22;62506;46.070;14.492;2022-08-19T08:39:52;25.70;60.60
64718;DHT22;62506;46.070;14.492;2022-08-19T08:42:22;25.70;60.80
64718;DHT22;62506;46.070;14.492;2022-08-19T08:47:20;25.70;61.20
64718;DHT22;62506;46.070;14.492;2022-08-19T08:49:55;25.70;61.00
64718;DHT22;62506;46.070;14.492;2022-08-19T08:54:48;25.70;60.50
64718;DHT22;62506;46.070;14.492;2022-08-19T08:57:15;25.70;61.40
64718;DHT22;62506;46.070;14.492;2022-08-19T08:59:43;25.70;60.80
64718;DHT22;62506;46.070;14.492;2022-08-19T09:02:10;25.70;60.90
64718;DHT22;62506;46.070;14.492;2022-08-19T09:04:36;25.70;60.50
64718;DHT22;62506;46.070;14.492;2022-08-19T09:09:48;25.70;61.10
64718;DHT22;62506;46.070;14.492;2022-08-19T09:15:09;25.70;61.00
64718;DHT22;62506;46.070;14.492;2022-08-19T09:17:36;25.70;60.50
64718;DHT22;62506;46.070;14.492;2022-08-19T09:22:34;25.70;60.40
64718;DHT22;62506;46.070;14.492;2022-08-19T09:25:00;25.70;60.60
64718;DHT22;62506;46.070;14.492;2022-08-19T09:27:26;25.70;60.30
64718;DHT22;62506;46.070;14.492;2022-08-19T09:29:52;25.70;60.80
64718;DHT22;62506;46.070;14.492;2022-08-19T09:32:19;25.70;60.60
64718;DHT22;62506;46.070;14.492;2022-08-19T09:34:45;25.70;60.40
64718;DHT22;62506;46.070;14.492;2022-08-19T09:37:11;25.70;61.30
64718;DHT22;62506;46.070;14.492;2022-08-19T09:39:37;25.60;60.30
64718;DHT22;62506;46.070;14.492;2022-08-19T09:42:02;25.60;60.30
64718;DHT22;62506;46.070;14.492;2022-08-19T09:44:28;25.60;60.40
64718;DHT22;62506;46.070;14.492;2022-08-19T09:46:54;25.60;60.90
64718;DHT22;62506;46.070;14.492;2022-08-19T09:49:21;25.60;60.30
64718;DHT22;62506;46.070;14.492;2022-08-19T09:51:50;25.60;61.40
64718;DHT22;62506;46.070;14.492;2022-08-19T09:54:16;25.60;60.40
64718;DHT22;62506;46.070;14.492;2022-08-19T09:56:41;25.60;60.50
64718;DHT22;62506;46.070;14.492;2022-08-19T09:59:08;25.60;60.60
64718;DHT22;62506;46.070;14.492;2022-08-19T10:01:34;25.60;60.60
64718;DHT22;62506;46.070;14.492;2022-08-19T10:04:00;25.60;60.60
64718;DHT22;62506;46.070;14.492;2022-08-19T10:06:27;25.60;60.30
64718;DHT22;62506;46.070;14.492;2022-08-19T10:08:55;25.60;60.60
64718;DHT22;62506;46.070;14.492;2022-08-19T10:11:21;25.60;60.30
64718;DHT22;62506;46.070;14.492;2022-08-19T10:13:47;25.60;60.30
64718;DHT22;62506;46.070;14.492;2022-08-19T10:16:15;25.60;60.70
64718;DHT22;62506;46.070;14.492;2022-08-19T10:18:43;25.60;60.20
64718;DHT22;62506;46.070;14.492;2022-08-19T10:21:16;25.60;60.10
64718;DHT22;62506;46.070;14.492;2022-08-19T10:23:43;25.60;60.20
64718;DHT22;62506;46.070;14.492;2022-08-19T10:26:11;25.60;60.10
64718;DHT22;62506;46.070;14.492;2022-08-19T10:28:37;25.60;60.10
64718;DHT22;62506;46.070;14.492;2022-08-19T10:31:03;25.60;60.30
64718;DHT22;62506;46.070;14.492;2022-08-19T10:33:29;25.60;60.00
64718;DHT22;62506;46.070;14.492;2022-08-19T10:36:03;25.70;60.00
64718;DHT22;62506;46.070;14.492;2022-08-19T10:38:29;25.70;60.00
64718;DHT22;62506;46.070;14.492;2022-08-19T10:40:55;25.70;59.80
64718;DHT22;62506;46.070;14.492;2022-08-19T10:43:20;25.70;59.90
64718;DHT22;62506;46.070;14.492;2022-08-19T10:45:53;25.70;59.80
64718;DHT22;62506;46.070;14.492;2022-08-19T10:48:27;25.70;59.70
64718;DHT22;62506;46.070;14.492;2022-08-19T10:50:52;25.70;59.70
64718;DHT22;62506;46.070;14.492;2022-08-19T10:53:37;25.70;59.60
64718;DHT22;62506;46.070;14.492;2022-08-19T10:56:02;25.70;59.60
64718;DHT22;62506;46.070;14.492;2022-08-19T10:58:46;25.70;60.40
64718;DHT22;62506;46.070;14.492;2022-08-19T11:01:13;25.70;59.70
64718;DHT22;62506;46.070;14.492;2022-08-19T11:03:39;25.70;59.60
64718;DHT22;62506;46.070;14.492;2022-08-19T11:06:05;25.70;59.60
64718;DHT22;62506;46.070;14.492;2022-08-19T11:08:31;25.70;59.50
64718;DHT22;62506;46.070;14.492;2022-08-19T11:10:58;25.70;59.70
64718;DHT22;62506;46.070;14.492;2022-08-19T11:13:26;25.70;59.50
64718;DHT22;62506;46.070;14.492;2022-08-19T11:15:56;25.70;59.50
64718;DHT22;62506;46.070;14.492;2022-08-19T11:18:22;25.80;59.50
64718;DHT22;62506;46.070;14.492;2022-08-19T11:20:47;25.80;59.60
64718;DHT22;62506;46.070;14.492;2022-08-19T11:23:14;25.70;59.50
64718;DHT22;62506;46.070;14.492;2022-08-19T11:25:39;25.70;59.40
64718;DHT22;62506;46.070;14.492;2022-08-19T11:28:05;25.70;59.50
64718;DHT22;62506;46.070;14.492;2022-08-19T11:30:30;25.80;59.60
64718;DHT22;62506;46.070;14.492;2022-08-19T11:32:58;25.70;59.50
64718;DHT22;62506;46.070;14.492;2022-08-19T11:35:26;25.80;59.60
64718;DHT22;62506;46.070;14.492;2022-08-19T11:37:51;25.70;59.50
64718;DHT22;62506;46.070;14.492;2022-08-19T11:40:17;25.70;59.50
64718;DHT22;62506;46.070;14.492;2022-08-19T11:42:42;25.80;59.50
64718;DHT22;62506;46.070;14.492;2022-08-19T11:45:21;25.70;59.40
64718;DHT22;62506;46.070;14.492;2022-08-19T11:47:46;25.70;59.30
64718;DHT22;62506;46.070;14.492;2022-08-19T11:50:13;25.80;59.50
64718;DHT22;62506;46.070;14.492;2022-08-19T11:52:38;25.80;59.50
64718;DHT22;62506;46.070;14.492;2022-08-19T11:55:04;25.80;59.60
64718;DHT22;62506;46.070;14.492;2022-08-19T11:57:30;25.80;59.30
64718;DHT22;62506;46.070;14.492;2022-08-19T11:59:55;25.80;60.10
64718;DHT22;62506;46.070;14.492;2022-08-19T12:02:21;25.80;59.40
64718;DHT22;62506;46.070;14.492;2022-08-19T12:04:48;25.80;59.30
64718;DHT22;62506;46.070;14.492;2022-08-19T12:07:14;25.80;59.40
64718;DHT22;62506;46.070;14.492;2022-08-19T12:09:39;25.80;59.60
64718;DHT22;62506;46.070;14.492;2022-08-19T12:12:05;25.80;59.40
64718;DHT22;62506;46.070;14.492;2022-08-19T12:14:31;25.80;59.50
64718;DHT22;62506;46.070;14.492;2022-08-19T12:16:57;25.80;59.50
64718;DHT22;62506;46.070;14.492;2022-08-19T12:19:22;25.80;59.50
64718;DHT22;62506;46.070;14.492;2022-08-19T12:21:50;25.80;59.30
64718;DHT22;62506;46.070;14.492;2022-08-19T12:24:16;25.70;59.30
64718;DHT22;62506;46.070;14.492;2022-08-19T12:26:48;25.70;59.40
64718;DHT22;62506;46.070;14.492;2022-08-19T12:29:13;25.70;59.40
64718;DHT22;62506;46.070;14.492;2022-08-19T12:31:40;25.70;59.40
64718;DHT22;62506;46.070;14.492;2022-08-19T12:34:05;25.70;59.60
64718;DHT22;62506;46.070;14.492;2022-08-19T12:36:31;25.70;59.40
64718;DHT22;62506;46.070;14.492;2022-08-19T12:38:57;25.70;59.50
64718;DHT22;62506;46.070;14.492;2022-08-19T12:41:22;25.70;59.50
64718;DHT22;62506;46.070;14.492;2022-08-19T12:43:48;25.70;59.50
64718;DHT22;62506;46.070;14.492;2022-08-19T12:46:15;25.70;59.60
64718;DHT22;62506;46.070;14.492;2022-08-19T12:48:41;25.70;59.60
64718;DHT22;62506;46.070;14.492;2022-08-19T12:51:07;25.70;60.00
64718;DHT22;62506;46.070;14.492;2022-08-19T12:53:33;25.70;59.50
64718;DHT22;62506;46.070;14.492;2022-08-19T12:55:59;25.70;59.50
64718;DHT22;62506;46.070;14.492;2022-08-19T12:58:25;25.70;59.60
64718;DHT22;62506;46.070;14.492;2022-08-19T13:00:51;25.60;59.60
64718;DHT22;62506;46.070;14.492;2022-08-19T13:03:16;25.70;59.60
64718;DHT22;62506;46.070;14.492;2022-08-19T13:05:42;25.70;59.80
64718;DHT22;62506;46.070;14.492;2022-08-19T13:08:07;25.70;59.60
64718;DHT22;62506;46.070;14.492;2022-08-19T13:10:34;25.70;59.80
64718;DHT22;62506;46.070;14.492;2022-08-19T13:13:00;25.70;59.70
64718;DHT22;62506;46.070;14.492;2022-08-19T13:15:26;25.70;60.30
64718;DHT22;62506;46.070;14.492;2022-08-19T13:17:56;25.70;59.60
64718;DHT22;62506;46.070;14.492;2022-08-19T13:20:22;25.70;59.50
64718;DHT22;62506;46.070;14.492;2022-08-19T13:22:48;25.70;59.40
64718;DHT22;62506;46.070;14.492;2022-08-19T13:25:14;25.70;59.40
64718;DHT22;62506;46.070;14.492;2022-08-19T13:27:42;25.70;59.50
64718;DHT22;62506;46.070;14.492;2022-08-19T13:30:08;25.70;59.50
64718;DHT22;62506;46.070;14.492;2022-08-19T13:32:53;25.70;59.60
64718;DHT22;62506;46.070;14.492;2022-08-19T13:35:58;25.70;59.60
64718;DHT22;62506;46.070;14.492;2022-08-19T13:38:23;25.70;59.80
64718;DHT22;62506;46.070;14.492;2022-08-19T13:40:49;25.70;59.90
64718;DHT22;62506;46.070;14.492;2022-08-19T13:43:15;25.70;59.80
64718;DHT22;62506;46.070;14.492;2022-08-19T13:45:42;25.70;59.90
64718;DHT22;62506;46.070;14.492;2022-08-19T13:48:07;25.70;59.90
64718;DHT22;62506;46.070;14.492;2022-08-19T13:50:43;25.70;59.90
64718;DHT22;62506;46.070;14.492;2022-08-19T13:53:09;25.70;60.00
64718;DHT22;62506;46.070;14.492;2022-08-19T13:55:39;25.70;60.00
64718;DHT22;62506;46.070;14.492;2022-08-19T13:58:05;25.60;60.00
64718;DHT22;62506;46.070;14.492;2022-08-19T14:00:32;25.70;60.00
64718;DHT22;62506;46.070;14.492;2022-08-19T14:02:58;25.70;60.00
64718;DHT22;62506;46.070;14.492;2022-08-19T14:05:25;25.60;60.00
64718;DHT22;62506;46.070;14.492;2022-08-19T14:07:51;25.60;60.30
64718;DHT22;62506;46.070;14.492;2022-08-19T14:10:16;25.60;60.00
64718;DHT22;62506;46.070;14.492;2022-08-19T14:12:42;25.60;60.00
64718;DHT22;62506;46.070;14.492;2022-08-19T14:15:08;25.60;60.00
64718;DHT22;62506;46.070;14.492;2022-08-19T14:17:34;25.70;60.10
64718;DHT22;62506;46.070;14.492;2022-08-19T14:20:03;25.70;60.00
64718;DHT22;62506;46.070;14.492;2022-08-19T14:22:33;25.70;60.00
64718;DHT22;62506;46.070;14.492;2022-08-19T14:24:58;25.70;59.90
64718;DHT22;62506;46.070;14.492;2022-08-19T14:27:24;25.70;59.90
64718;DHT22;62506;46.070;14.492;2022-08-19T14:29:51;25.70;59.90
64718;DHT22;62506;46.070;14.492;2022-08-19T14:32:16;25.70;59.90
64718;DHT22;62506;46.070;14.492;2022-08-19T14:34:42;25.70;60.00
64718;DHT22;62506;46.070;14.492;2022-08-19T14:37:11;25.70;60.00
64718;DHT22;62506;46.070;14.492;2022-08-19T14:39:39;25.70;60.00
64718;DHT22;62506;46.070;14.492;2022-08-19T14:42:06;25.70;60.10
64718;DHT22;62506;46.070;14.492;2022-08-19T14:44:33;25.70;60.00
64718;DHT22;62506;46.070;14.492;2022-08-19T14:46:59;25.70;60.00
64718;DHT22;62506;46.070;14.492;2022-08-19T14:49:25;25.80;60.20
64718;DHT22;62506;46.070;14.492;2022-08-19T14:51:50;25.70;60.00
64718;DHT22;62506;46.070;14.492;2022-08-19T14:54:16;25.70;59.90
64718;DHT22;62506;46.070;14.492;2022-08-19T14:56:41;25.80;60.00
64718;DHT22;62506;46.070;14.492;2022-08-19T14:59:07;25.70;59.90
64718;DHT22;62506;46.070;14.492;2022-08-19T15:01:32;25.70;60.00
64718;DHT22;62506;46.070;14.492;2022-08-19T15:03:58;25.70;59.90
64718;DHT22;62506;46.070;14.492;2022-08-19T15:06:23;25.70;59.90
64718;DHT22;62506;46.070;14.492;2022-08-19T15:08:49;25.70;60.00
64718;DHT22;62506;46.070;14.492;2022-08-19T15:11:17;25.70;60.00
64718;DHT22;62506;46.070;14.492;2022-08-19T15:13:46;25.70;59.90
64718;DHT22;62506;46.070;14.492;2022-08-19T15:16:12;25.70;59.90
64718;DHT22;62506;46.070;14.492;2022-08-19T15:18:40;25.80;60.00
64718;DHT22;62506;46.070;14.492;2022-08-19T15:21:07;25.70;60.00
64718;DHT22;62506;46.070;14.492;2022-08-19T15:23:33;25.70;59.90
64718;DHT22;62506;46.070;14.492;2022-08-19T15:25:59;25.70;59.80
64718;DHT22;62506;46.070;14.492;2022-08-19T15:28:25;25.70;59.80
64718;DHT22;62506;46.070;14.492;2022-08-19T15:30:51;25.70;59.80